sensor_id;sensor_type;location;lat;lon;timestamp;P1;durP1;ratioP1;P2;durP2;ratioP2
1677;SDS011;6034;46.864;15.216;2023-04-01T13:08:12;1.00;;;0.40;;
1677;SDS011;6034;46.864;15.216;2023-04-01T13:10:53;0.90;;;0.30;;
1677;SDS011;6034;46.864;15.216;2023-04-01T13:16:31;0.90;;;0.38;;
1677;SDS011;6034;46.864;15.216;2023-04-01T13:19:06;0.90;;;0.30;;
1677;SDS011;6034;46.864;15.216;2023-04-01T13:21:42;0.80;;;0.20;;
1677;SDS011;6034;46.864;15.216;2023-04-01T13:27:09;1.20;;;0.30;;
1677;SDS011;6034;46.864;15.216;2023-04-01T13:29:41;1.10;;;0.40;;
1677;SDS011;6034;46.864;15.216;2023-04-01T13:32:18;1.13;;;0.50;;
1677;SDS011;6034;46.864;15.216;2023-04-01T13:34:56;1.65;;;0.30;;
1677;SDS011;6034;46.864;15.216;2023-04-01T13:37:41;0.90;;;0.30;;
1677;SDS011;6034;46.864;15.216;2023-04-01T13:40:30;0.93;;;0.40;;
1677;SDS011;6034;46.864;15.216;2023-04-01T13:43:07;1.10;;;0.52;;
1677;SDS011;6034;46.864;15.216;2023-04-01T13:45:44;1.00;;;0.30;;
1677;SDS011;6034;46.864;15.216;2023-04-01T13:51:35;1.00;;;0.30;;
1677;SDS011;6034;46.864;15.216;2023-04-01T13:54:34;1.20;;;0.40;;
1677;SDS011;6034;46.864;15.216;2023-04-01T13:57:20;1.10;;;0.55;;
1677;SDS011;6034;46.864;15.216;2023-04-01T14:03:12;1.35;;;0.43;;
1677;SDS011;6034;46.864;15.216;2023-04-01T14:06:00;1.10;;;0.40;;
1677;SDS011;6034;46.864;15.216;2023-04-01T14:08:39;1.65;;;0.40;;
1677;SDS011;6034;46.864;15.216;2023-04-01T17:14:51;1.20;;;0.50;;
1677;SDS011;6034;46.864;15.216;2023-04-01T17:17:27;1.08;;;0.45;;
1677;SDS011;6034;46.864;15.216;2023-04-01T17:20:05;1.27;;;0.55;;
1677;SDS011;6034;46.864;15.216;2023-04-01T17:22:51;1.65;;;0.55;;
1677;SDS011;6034;46.864;15.216;2023-04-01T17:25:36;1.45;;;0.63;;
1677;SDS011;6034;46.864;15.216;2023-04-01T17:28:16;1.50;;;0.50;;
1677;SDS011;6034;46.864;15.216;2023-04-01T17:30:57;1.00;;;0.40;;
1677;SDS011;6034;46.864;15.216;2023-04-01T17:33:51;1.63;;;0.80;;
1677;SDS011;6034;46.864;15.216;2023-04-01T17:36:42;1.10;;;0.50;;
1677;SDS011;6034;46.864;15.216;2023-04-01T17:39:27;1.20;;;0.40;;
1677;SDS011;6034;46.864;15.216;2023-04-01T17:42:06;1.13;;;0.50;;
1677;SDS011;6034;46.864;15.216;2023-04-01T17:44:45;1.23;;;0.70;;
1677;SDS011;6034;46.864;15.216;2023-04-01T17:50:23;1.83;;;0.50;;
1677;SDS011;6034;46.864;15.216;2023-04-01T17:53:02;1.00;;;0.40;;
1677;SDS011;6034;46.864;15.216;2023-04-01T17:55:55;1.30;;;0.60;;
1677;SDS011;6034;46.864;15.216;2023-04-01T17:58:33;1.90;;;0.70;;
1677;SDS011;6034;46.864;15.216;2023-04-01T18:04:07;1.35;;;0.80;;
1677;SDS011;6034;46.864;15.216;2023-04-01T18:10:00;1.13;;;0.57;;
1677;SDS011;6034;46.864;15.216;2023-04-01T18:12:52;1.10;;;0.50;;
1677;SDS011;6034;46.864;15.216;2023-04-01T18:15:41;1.10;;;0.50;;
1677;SDS011;6034;46.864;15.216;2023-04-01T18:18:18;1.20;;;0.50;;
1677;SDS011;6034;46.864;15.216;2023-04-01T18:21:07;1.38;;;0.60;;
1677;SDS011;6034;46.864;15.216;2023-04-01T18:23:43;1.30;;;0.65;;
1677;SDS011;6034;46.864;15.216;2023-04-01T18:26:19;1.73;;;0.93;;
1677;SDS011;6034;46.864;15.216;2023-04-01T18:28:54;1.30;;;0.70;;
1677;SDS011;6034;46.864;15.216;2023-04-01T18:31:26;1.20;;;0.50;;
1677;SDS011;6034;46.864;15.216;2023-04-01T18:34:06;1.65;;;0.70;;
1677;SDS011;6034;46.864;15.216;2023-04-01T18:36:41;1.48;;;0.80;;
1677;SDS011;6034;46.864;15.216;2023-04-01T18:39:15;1.40;;;0.60;;
1677;SDS011;6034;46.864;15.216;2023-04-01T18:41:50;1.55;;;0.80;;
1677;SDS011;6034;46.864;15.216;2023-04-01T18:44:41;1.67;;;0.70;;
1677;SDS011;6034;46.864;15.216;2023-04-01T18:47:21;1.70;;;0.60;;
1677;SDS011;6034;46.864;15.216;2023-04-01T18:49:59;1.45;;;0.90;;
1677;SDS011;6034;46.864;15.216;2023-04-01T18:52:39;2.75;;;1.33;;
1677;SDS011;6034;46.864;15.216;2023-04-01T18:55:22;2.03;;;1.30;;
1677;SDS011;6034;46.864;15.216;2023-04-01T18:57:58;1.27;;;0.63;;
1677;SDS011;6034;46.864;15.216;2023-04-01T19:00:43;2.35;;;0.70;;
1677;SDS011;6034;46.864;15.216;2023-04-01T19:03:20;2.22;;;0.77;;
1677;SDS011;6034;46.864;15.216;2023-04-01T19:06:06;2.08;;;0.75;;
1677;SDS011;6034;46.864;15.216;2023-04-01T19:08:44;1.00;;;0.45;;
1677;SDS011;6034;46.864;15.216;2023-04-01T19:11:17;1.23;;;0.50;;
1677;SDS011;6034;46.864;15.216;2023-04-01T19:14:08;1.35;;;0.65;;
1677;SDS011;6034;46.864;15.216;2023-04-01T19:16:46;1.55;;;0.55;;
1677;SDS011;6034;46.864;15.216;2023-04-01T19:22:22;1.45;;;0.63;;
1677;SDS011;6034;46.864;15.216;2023-04-01T19:25:02;1.10;;;0.40;;
1677;SDS011;6034;46.864;15.216;2023-04-01T19:27:48;1.45;;;0.57;;
1677;SDS011;6034;46.864;15.216;2023-04-01T19:30:22;2.33;;;0.60;;
1677;SDS011;6034;46.864;15.216;2023-04-01T19:33:02;1.20;;;0.60;;
1677;SDS011;6034;46.864;15.216;2023-04-01T19:35:39;1.80;;;0.60;;
1677;SDS011;6034;46.864;15.216;2023-04-01T19:38:13;1.10;;;0.70;;
1677;SDS011;6034;46.864;15.216;2023-04-01T19:40:49;1.45;;;0.60;;
1677;SDS011;6034;46.864;15.216;2023-04-01T19:43:29;1.75;;;0.68;;
1677;SDS011;6034;46.864;15.216;2023-04-01T19:46:10;2.47;;;0.90;;
1677;SDS011;6034;46.864;15.216;2023-04-01T19:48:52;1.45;;;0.65;;
1677;SDS011;6034;46.864;15.216;2023-04-01T19:51:32;1.52;;;0.90;;
1677;SDS011;6034;46.864;15.216;2023-04-01T19:54:10;1.40;;;0.70;;
1677;SDS011;6034;46.864;15.216;2023-04-01T19:56:47;3.35;;;0.90;;
1677;SDS011;6034;46.864;15.216;2023-04-01T19:59:23;1.80;;;0.90;;
1677;SDS011;6034;46.864;15.216;2023-04-01T20:01:59;1.70;;;0.80;;
1677;SDS011;6034;46.864;15.216;2023-04-01T20:04:43;1.25;;;0.55;;
1677;SDS011;6034;46.864;15.216;2023-04-01T20:07:16;1.20;;;0.55;;
1677;SDS011;6034;46.864;15.216;2023-04-01T20:09:53;1.80;;;0.77;;
1677;SDS011;6034;46.864;15.216;2023-04-01T20:12:34;1.60;;;0.70;;
1677;SDS011;6034;46.864;15.216;2023-04-01T21:57:41;1.55;;;0.50;;
1677;SDS011;6034;46.864;15.216;2023-04-01T22:00:38;1.08;;;0.30;;
1677;SDS011;6034;46.864;15.216;2023-04-01T22:06:18;1.30;;;0.40;;
1677;SDS011;6034;46.864;15.216;2023-04-01T22:08:58;1.10;;;0.30;;
